Aviation Digital Data Service (ADDS)

Output produced by METARs form (1337 UTC 22 April 2021)
found at http://www.aviationweather.gov/metar/data/
 
KPAE 221253Z AUTO 21009KT 10SM OVC006 08/06 A2991 RMK AO2 SLP129 T00830061
KPAE 221120Z 2212/2312 17005KT P6SM OVC008 
     FM221900 24006KT P6SM BKN022 
     FM222100 26005KT P6SM SCT040 SCT200 
     FM230100 VRB04KT P6SM SCT200 
     FM231000 18008KT P6SM OVC027
       
KAWO 221320Z AUTO 36003KT 8SM OVC009 06/05 A2993 RMK AO2 CIG 008V012
KAWO 221256Z AUTO 00000KT 10SM BKN011 06/05 A2992 RMK AO2 SLP137 T00560050
KAWO 221253Z AUTO 00000KT 9SM BKN011 06/05 A2992 RMK AO2
KBFI 221253Z 18007KT 10SM OVC017 09/06 A2993 RMK AO2 SLP135 T00940056
KBFI 221120Z 2212/2312 18008KT P6SM OVC012 
     FM221800 18005KT P6SM OVC020 
     FM222100 21005KT P6SM BKN040 
     FM230100 17005KT P6SM SCT050 SCT200 
     FM230900 19007KT P6SM OVC035
       
KRNT 221253Z AUTO 18007KT 10SM OVC018 10/06 A2993 RMK AO2 SLP140 T01000056
KSEA 221253Z 19006KT 10SM OVC013 09/06 A2992 RMK AO2 SLP137 T00940061
KSEA 221120Z 2212/2318 21007KT P6SM OVC010 
     FM221800 23006KT P6SM OVC017 
     FM222100 23005KT P6SM BKN035 
     FM230100 22005KT P6SM SCT050 SCT200 
     FM230900 19008KT P6SM OVC030